PWSweather.com
Personal Weather Stations
Station Observations
MADWEATHER
MadeiraPT

MadeiraPT

Lat: 32.735, Lon: -17.194

Elevation: 1063

Station Type: Davis VantagePro2

www.mad-weather.com

High Low Average
Temperature 62.6°F17.0°C 51.6°F10.9°C 56.1°F13.4°C
Dew Point 55.4°F13.0°C 48.2°F9.0°C 51.4°F10.8°C
Winds 8.4 mph 13.5 kmh Calm Calm 2.0 mph ESE3.2 kmh ESE
Wind Gusts 13.0 mph20.9 kmh -- 4.0 mph6.4 kmh
Humidity 90% 70% 85%
Pressure 30.28 in1025.4 mb 30.20 in1022.7 mb -
Precipitation 0.00 in0.0 mm - -
Hour Temp Dew Point Humidity Winds Wind Gusts Pressure Precip Precip Rate Daily Precip Total
12:00 AM 54.0°F12.2°C 50.8°F10.4°C 89% Calm Calm -- 30.28 in1025.4 mb - 0.00 in0.0 mm 0.00 in0.0 mm
12:10 AM 53.7°F12.1°C 49.9°F9.9°C 87% 0.1 mph ENE0.2 kmh ENE -- 30.27 in1025.1 mb - 0.00 in0.0 mm 0.00 in0.0 mm
12:20 AM 53.9°F12.2°C 49.5°F9.7°C 85% Calm Calm -- 30.27 in1025.1 mb - 0.00 in0.0 mm 0.00 in0.0 mm
12:30 AM 54.3°F12.4°C 49.9°F9.9°C 85% Calm Calm -- 30.27 in1025.1 mb - 0.00 in0.0 mm 0.00 in0.0 mm
12:40 AM 54.1°F12.3°C 49.4°F9.7°C 84% 1.0 mph ENE1.6 kmh ENE 1.0 mph1.6 kmh 30.27 in1025.1 mb - 0.00 in0.0 mm 0.00 in0.0 mm
12:50 AM 54.1°F12.3°C 49.7°F9.8°C 85% 0.8 mph ENE1.3 kmh ENE 3.0 mph4.8 kmh 30.27 in1025.1 mb - 0.00 in0.0 mm 0.00 in0.0 mm
01:00 AM 53.6°F12.0°C 49.2°F9.6°C 85% 1.2 mph ENE1.9 kmh ENE 1.0 mph1.6 kmh 30.27 in1025.1 mb - 0.00 in0.0 mm 0.00 in0.0 mm
01:10 AM 53.5°F11.9°C 49.4°F9.7°C 86% 2.8 mph ENE4.5 kmh ENE 4.0 mph6.4 kmh 30.27 in1025.1 mb - 0.00 in0.0 mm 0.00 in0.0 mm
01:20 AM 53.5°F11.9°C 49.4°F9.7°C 86% 2.3 mph ENE3.7 kmh ENE 4.0 mph6.4 kmh 30.27 in1025.1 mb - 0.00 in0.0 mm 0.00 in0.0 mm
01:30 AM 53.6°F12.0°C 49.8°F9.9°C 87% 1.7 mph ENE2.7 kmh ENE 4.0 mph6.4 kmh 30.26 in1024.7 mb - 0.00 in0.0 mm 0.00 in0.0 mm
01:40 AM 53.7°F12.1°C 50.2°F10.1°C 88% 2.6 mph ENE4.2 kmh ENE 4.0 mph6.4 kmh 30.26 in1024.7 mb - 0.00 in0.0 mm 0.00 in0.0 mm
01:50 AM 53.8°F12.1°C 50.6°F10.3°C 89% 2.2 mph ENE3.5 kmh ENE 4.0 mph6.4 kmh 30.26 in1024.7 mb - 0.00 in0.0 mm 0.00 in0.0 mm
02:00 AM 53.5°F11.9°C 50.4°F10.2°C 89% 1.9 mph ENE3.1 kmh ENE 3.0 mph4.8 kmh 30.26 in1024.7 mb - 0.00 in0.0 mm 0.00 in0.0 mm
02:10 AM 53.6°F12.0°C 50.4°F10.2°C 89% 2.1 mph ENE3.4 kmh ENE 3.0 mph4.8 kmh 30.26 in1024.7 mb - 0.00 in0.0 mm 0.00 in0.0 mm
02:20 AM 53.7°F12.1°C 50.8°F10.4°C 90% 1.8 mph ENE2.9 kmh ENE 4.0 mph6.4 kmh 30.25 in1024.4 mb - 0.00 in0.0 mm 0.00 in0.0 mm
02:30 AM 53.6°F12.0°C 50.7°F10.4°C 90% 2.6 mph ENE4.2 kmh ENE 5.0 mph8.0 kmh 30.25 in1024.4 mb - 0.00 in0.0 mm 0.00 in0.0 mm
02:40 AM 53.7°F12.1°C 50.5°F10.3°C 89% 2.0 mph ENE3.2 kmh ENE 4.0 mph6.4 kmh 30.25 in1024.4 mb - 0.00 in0.0 mm 0.00 in0.0 mm
02:50 AM 53.6°F12.0°C 50.4°F10.2°C 89% 2.5 mph ENE4.0 kmh ENE 3.0 mph4.8 kmh 30.25 in1024.4 mb - 0.00 in0.0 mm 0.00 in0.0 mm
03:00 AM 53.4°F11.9°C 50.2°F10.1°C 89% 1.9 mph ENE3.1 kmh ENE 4.0 mph6.4 kmh 30.25 in1024.4 mb - 0.00 in0.0 mm 0.00 in0.0 mm
03:10 AM 53.3°F11.8°C 50.1°F10.1°C 89% 2.0 mph ENE3.2 kmh ENE 4.0 mph6.4 kmh 30.25 in1024.4 mb - 0.00 in0.0 mm 0.00 in0.0 mm
03:20 AM 53.3°F11.8°C 50.1°F10.1°C 89% 1.7 mph ENE2.7 kmh ENE 3.0 mph4.8 kmh 30.24 in1024.0 mb - 0.00 in0.0 mm 0.00 in0.0 mm
03:30 AM 53.0°F11.7°C 49.5°F9.7°C 88% 0.9 mph ENE1.4 kmh ENE 2.0 mph3.2 kmh 30.24 in1024.0 mb - 0.00 in0.0 mm 0.00 in0.0 mm
03:40 AM 52.9°F11.6°C 49.1°F9.5°C 87% 2.9 mph ENE4.7 kmh ENE 3.0 mph4.8 kmh 30.24 in1024.0 mb - 0.00 in0.0 mm 0.00 in0.0 mm
03:50 AM 53.0°F11.7°C 48.9°F9.4°C 86% 3.0 mph ENE4.8 kmh ENE 4.0 mph6.4 kmh 30.24 in1024.0 mb - 0.00 in0.0 mm 0.00 in0.0 mm
04:00 AM 52.7°F11.5°C 48.3°F9.1°C 85% 3.3 mph ENE5.3 kmh ENE 5.0 mph8.0 kmh 30.24 in1024.0 mb - 0.00 in0.0 mm 0.00 in0.0 mm
04:10 AM 52.8°F11.6°C 48.7°F9.3°C 86% 3.7 mph ENE6.0 kmh ENE 4.0 mph6.4 kmh 30.24 in1024.0 mb - 0.00 in0.0 mm 0.00 in0.0 mm
04:20 AM 53.0°F11.7°C 48.9°F9.4°C 86% 3.6 mph ENE5.8 kmh ENE 5.0 mph8.0 kmh 30.24 in1024.0 mb - 0.00 in0.0 mm 0.00 in0.0 mm
04:30 AM 53.7°F12.1°C 49.9°F9.9°C 87% 2.3 mph ENE3.7 kmh ENE 3.0 mph4.8 kmh 30.23 in1023.7 mb - 0.00 in0.0 mm 0.00 in0.0 mm
04:40 AM 53.7°F12.1°C 49.6°F9.8°C 86% 0.3 mph ENE0.5 kmh ENE 2.0 mph3.2 kmh 30.23 in1023.7 mb - 0.00 in0.0 mm 0.00 in0.0 mm
04:50 AM 53.4°F11.9°C 49.3°F9.6°C 86% 1.3 mph ENE2.1 kmh ENE 2.0 mph3.2 kmh 30.23 in1023.7 mb - 0.00 in0.0 mm 0.00 in0.0 mm
05:00 AM 53.3°F11.8°C 49.2°F9.6°C 86% 1.9 mph ENE3.1 kmh ENE 3.0 mph4.8 kmh 30.23 in1023.7 mb - 0.00 in0.0 mm 0.00 in0.0 mm
05:10 AM 53.6°F12.0°C 49.8°F9.9°C 87% 1.4 mph ENE2.3 kmh ENE 3.0 mph4.8 kmh 30.23 in1023.7 mb - 0.00 in0.0 mm 0.00 in0.0 mm
05:20 AM 53.3°F11.8°C 49.5°F9.7°C 87% 2.1 mph ENE3.4 kmh ENE 4.0 mph6.4 kmh 30.23 in1023.7 mb - 0.00 in0.0 mm 0.00 in0.0 mm
05:30 AM 53.2°F11.8°C 49.7°F9.8°C 88% 1.8 mph ENE2.9 kmh ENE 3.0 mph4.8 kmh 30.23 in1023.7 mb - 0.00 in0.0 mm 0.00 in0.0 mm
05:40 AM 53.3°F11.8°C 49.8°F9.9°C 88% 2.9 mph ENE4.7 kmh ENE 4.0 mph6.4 kmh 30.23 in1023.7 mb - 0.00 in0.0 mm 0.00 in0.0 mm
05:50 AM 53.0°F11.7°C 49.5°F9.7°C 88% 1.9 mph ENE3.1 kmh ENE 4.0 mph6.4 kmh 30.23 in1023.7 mb - 0.00 in0.0 mm 0.00 in0.0 mm
06:00 AM 53.1°F11.7°C 49.6°F9.8°C 88% 1.8 mph ENE2.9 kmh ENE 4.0 mph6.4 kmh 30.23 in1023.7 mb - 0.00 in0.0 mm 0.00 in0.0 mm
06:10 AM 52.9°F11.6°C 49.4°F9.7°C 88% 1.9 mph ENE3.1 kmh ENE 4.0 mph6.4 kmh 30.23 in1023.7 mb - 0.00 in0.0 mm 0.00 in0.0 mm
06:20 AM 52.8°F11.6°C 49.3°F9.6°C 88% 2.1 mph ENE3.4 kmh ENE 3.0 mph4.8 kmh 30.23 in1023.7 mb - 0.00 in0.0 mm 0.00 in0.0 mm
06:30 AM 53.0°F11.7°C 49.8°F9.9°C 89% 2.0 mph ENE3.2 kmh ENE 3.0 mph4.8 kmh 30.23 in1023.7 mb - 0.00 in0.0 mm 0.00 in0.0 mm
06:40 AM 52.7°F11.5°C 49.5°F9.7°C 89% 1.8 mph ENE2.9 kmh ENE 3.0 mph4.8 kmh 30.23 in1023.7 mb - 0.00 in0.0 mm 0.00 in0.0 mm
06:50 AM 52.5°F11.4°C 49.4°F9.7°C 89% 2.4 mph ENE3.9 kmh ENE 4.0 mph6.4 kmh 30.23 in1023.7 mb - 0.00 in0.0 mm 0.00 in0.0 mm
07:00 AM 52.2°F11.2°C 49.0°F9.4°C 89% 3.0 mph ENE4.8 kmh ENE 4.0 mph6.4 kmh 30.23 in1023.7 mb - 0.00 in0.0 mm 0.00 in0.0 mm
07:10 AM 51.9°F11.1°C 48.8°F9.3°C 89% 3.2 mph ENE5.1 kmh ENE 4.0 mph6.4 kmh 30.23 in1023.7 mb - 0.00 in0.0 mm 0.00 in0.0 mm
07:20 AM 52.0°F11.1°C 48.9°F9.4°C 89% 3.0 mph ENE4.8 kmh ENE 4.0 mph6.4 kmh 30.23 in1023.7 mb - 0.00 in0.0 mm 0.00 in0.0 mm
07:30 AM 52.0°F11.1°C 48.9°F9.4°C 89% 2.7 mph ENE4.3 kmh ENE 4.0 mph6.4 kmh 30.24 in1024.0 mb - 0.00 in0.0 mm 0.00 in0.0 mm
07:40 AM 51.8°F11.0°C 48.4°F9.1°C 88% 3.8 mph ENE6.1 kmh ENE 4.0 mph6.4 kmh 30.24 in1024.0 mb - 0.00 in0.0 mm 0.00 in0.0 mm
07:50 AM 51.6°F10.9°C 48.2°F9.0°C 88% 2.5 mph ENE4.0 kmh ENE 4.0 mph6.4 kmh 30.24 in1024.0 mb - 0.00 in0.0 mm 0.00 in0.0 mm
08:00 AM 51.7°F10.9°C 48.3°F9.1°C 88% 2.6 mph ENE4.2 kmh ENE 4.0 mph6.4 kmh 30.24 in1024.0 mb - 0.00 in0.0 mm 0.00 in0.0 mm
08:10 AM 51.8°F11.0°C 48.4°F9.1°C 88% 3.1 mph ENE5.0 kmh ENE 5.0 mph8.0 kmh 30.24 in1024.0 mb - 0.00 in0.0 mm 0.00 in0.0 mm
08:20 AM 52.0°F11.1°C 48.3°F9.1°C 87% 2.6 mph ENE4.2 kmh ENE 4.0 mph6.4 kmh 30.24 in1024.0 mb - 0.00 in0.0 mm 0.00 in0.0 mm
08:30 AM 52.4°F11.3°C 48.9°F9.4°C 88% 2.5 mph ENE4.0 kmh ENE 4.0 mph6.4 kmh 30.25 in1024.4 mb - 0.00 in0.0 mm 0.00 in0.0 mm
08:40 AM 53.2°F11.8°C 49.8°F9.9°C 88% 0.5 mph ENE0.8 kmh ENE 2.0 mph3.2 kmh 30.25 in1024.4 mb - 0.00 in0.0 mm 0.00 in0.0 mm
08:50 AM 54.4°F12.4°C 50.6°F10.3°C 87% Calm Calm -- 30.25 in1024.4 mb - 0.00 in0.0 mm 0.00 in0.0 mm
09:00 AM 56.1°F13.4°C 51.6°F10.9°C 85% Calm Calm -- 30.26 in1024.7 mb - 0.00 in0.0 mm 0.00 in0.0 mm
09:10 AM 57.1°F13.9°C 51.7°F10.9°C 82% Calm Calm -- 30.26 in1024.7 mb - 0.00 in0.0 mm 0.00 in0.0 mm
09:20 AM 57.2°F14.0°C 51.4°F10.8°C 81% Calm Calm -- 30.26 in1024.7 mb - 0.00 in0.0 mm 0.00 in0.0 mm
09:30 AM 57.4°F14.1°C 51.3°F10.7°C 80% Calm Calm -- 30.27 in1025.1 mb - 0.00 in0.0 mm 0.00 in0.0 mm
09:40 AM 57.6°F14.2°C 51.8°F11.0°C 81% Calm Calm -- 30.27 in1025.1 mb - 0.00 in0.0 mm 0.00 in0.0 mm
09:50 AM 57.8°F14.3°C 52.4°F11.3°C 82% Calm Calm -- 30.27 in1025.1 mb - 0.00 in0.0 mm 0.00 in0.0 mm
10:00 AM 57.7°F14.3°C 52.6°F11.4°C 83% Calm Calm -- 30.27 in1025.1 mb - 0.00 in0.0 mm 0.00 in0.0 mm
10:10 AM 57.9°F14.4°C 52.8°F11.6°C 83% Calm Calm -- 30.27 in1025.1 mb - 0.00 in0.0 mm 0.00 in0.0 mm
10:20 AM 58.2°F14.6°C 53.4°F11.9°C 84% 0.2 mph ENE0.3 kmh ENE -- 30.27 in1025.1 mb - 0.00 in0.0 mm 0.00 in0.0 mm
10:30 AM 58.5°F14.7°C 53.4°F11.9°C 83% Calm Calm -- 30.27 in1025.1 mb - 0.00 in0.0 mm 0.00 in0.0 mm
10:40 AM 58.5°F14.7°C 52.0°F11.1°C 79% 1.4 mph ENE2.3 kmh ENE 2.0 mph3.2 kmh 30.27 in1025.1 mb - 0.00 in0.0 mm 0.00 in0.0 mm
10:50 AM 59.1°F15.1°C 52.2°F11.2°C 78% 1.4 mph ENE2.3 kmh ENE 3.0 mph4.8 kmh 30.27 in1025.1 mb - 0.00 in0.0 mm 0.00 in0.0 mm
11:00 AM 59.0°F15.0°C 52.5°F11.4°C 79% 1.6 mph ENE2.6 kmh ENE 4.0 mph6.4 kmh 30.27 in1025.1 mb - 0.00 in0.0 mm 0.00 in0.0 mm
11:10 AM 58.8°F14.9°C 52.6°F11.4°C 80% 0.8 mph ENE1.3 kmh ENE 1.0 mph1.6 kmh 30.28 in1025.4 mb - 0.00 in0.0 mm 0.00 in0.0 mm
11:20 AM 59.0°F15.0°C 52.5°F11.4°C 79% 2.4 mph ENE3.9 kmh ENE 3.0 mph4.8 kmh 30.28 in1025.4 mb - 0.00 in0.0 mm 0.00 in0.0 mm
11:30 AM 59.7°F15.4°C 53.5°F11.9°C 80% 1.0 mph ENE1.6 kmh ENE 3.0 mph4.8 kmh 30.27 in1025.1 mb - 0.00 in0.0 mm 0.00 in0.0 mm
11:40 AM 59.8°F15.4°C 52.9°F11.6°C 78% 3.0 mph ENE4.8 kmh ENE 5.0 mph8.0 kmh 30.27 in1025.1 mb - 0.00 in0.0 mm 0.00 in0.0 mm
11:50 AM 59.6°F15.3°C 52.0°F11.1°C 76% 1.7 mph ENE2.7 kmh ENE 3.0 mph4.8 kmh 30.27 in1025.1 mb - 0.00 in0.0 mm 0.00 in0.0 mm
12:00 PM 59.6°F15.3°C 51.7°F10.9°C 75% 2.5 mph ENE4.0 kmh ENE 4.0 mph6.4 kmh 30.26 in1024.7 mb - 0.00 in0.0 mm 0.00 in0.0 mm
12:10 PM 59.8°F15.4°C 52.2°F11.2°C 76% 2.4 mph ENE3.9 kmh ENE 5.0 mph8.0 kmh 30.26 in1024.7 mb - 0.00 in0.0 mm 0.00 in0.0 mm
12:20 PM 60.9°F16.1°C 52.2°F11.2°C 73% 3.4 mph ENE5.5 kmh ENE 6.0 mph9.7 kmh 30.26 in1024.7 mb - 0.00 in0.0 mm 0.00 in0.0 mm
12:30 PM 62.0°F16.7°C 52.8°F11.6°C 72% 5.0 mph ENE8.0 kmh ENE 7.0 mph11.3 kmh 30.25 in1024.4 mb - 0.00 in0.0 mm 0.00 in0.0 mm
12:40 PM 61.3°F16.3°C 51.4°F10.8°C 70% 3.9 mph ENE6.3 kmh ENE 7.0 mph11.3 kmh 30.25 in1024.4 mb - 0.00 in0.0 mm 0.00 in0.0 mm
12:50 PM 60.7°F15.9°C 52.0°F11.1°C 73% 5.7 mph ENE9.2 kmh ENE 8.0 mph12.9 kmh 30.25 in1024.4 mb - 0.00 in0.0 mm 0.00 in0.0 mm
01:00 PM 61.5°F16.4°C 52.8°F11.6°C 73% 6.1 mph ENE9.8 kmh ENE 7.0 mph11.3 kmh 30.25 in1024.4 mb - 0.00 in0.0 mm 0.00 in0.0 mm
01:10 PM 62.2°F16.8°C 53.0°F11.7°C 72% 5.4 mph NW8.7 kmh NW 9.0 mph14.5 kmh 30.24 in1024.0 mb - 0.00 in0.0 mm 0.00 in0.0 mm
01:20 PM 62.6°F17.0°C 53.0°F11.7°C 71% 6.3 mph WNW10.1 kmh WNW 9.0 mph14.5 kmh 30.24 in1024.0 mb - 0.00 in0.0 mm 0.00 in0.0 mm
01:30 PM 62.4°F16.9°C 52.9°F11.6°C 71% 6.7 mph W10.8 kmh W 10.0 mph16.1 kmh 30.23 in1023.7 mb - 0.00 in0.0 mm 0.00 in0.0 mm
01:40 PM 61.2°F16.2°C 52.4°F11.3°C 73% 7.4 mph WSW11.9 kmh WSW 10.0 mph16.1 kmh 30.24 in1024.0 mb - 0.00 in0.0 mm 0.00 in0.0 mm
01:50 PM 60.8°F16.0°C 53.2°F11.8°C 76% 3.9 mph WSW6.3 kmh WSW 4.0 mph6.4 kmh 30.23 in1023.7 mb - 0.00 in0.0 mm 0.00 in0.0 mm
02:00 PM 60.3°F15.7°C 54.1°F12.3°C 80% 3.2 mph WSW5.1 kmh WSW 4.0 mph6.4 kmh 30.23 in1023.7 mb - 0.00 in0.0 mm 0.00 in0.0 mm
02:10 PM 59.8°F15.4°C 53.6°F12.0°C 80% 2.3 mph SW3.7 kmh SW 4.0 mph6.4 kmh 30.23 in1023.7 mb - 0.00 in0.0 mm 0.00 in0.0 mm
02:20 PM 59.5°F15.3°C 53.3°F11.8°C 80% 1.7 mph SW2.7 kmh SW 4.0 mph6.4 kmh 30.23 in1023.7 mb - 0.00 in0.0 mm 0.00 in0.0 mm
02:30 PM 59.5°F15.3°C 54.0°F12.2°C 82% 3.5 mph SW5.6 kmh SW 5.0 mph8.0 kmh 30.23 in1023.7 mb - 0.00 in0.0 mm 0.00 in0.0 mm
02:40 PM 61.5°F16.4°C 54.6°F12.6°C 78% 4.8 mph SW7.7 kmh SW 5.0 mph8.0 kmh 30.22 in1023.4 mb - 0.00 in0.0 mm 0.00 in0.0 mm
02:50 PM 62.4°F16.9°C 55.1°F12.8°C 77% 5.6 mph SW9.0 kmh SW 11.0 mph17.7 kmh 30.22 in1023.4 mb - 0.00 in0.0 mm 0.00 in0.0 mm
03:00 PM 61.9°F16.6°C 55.0°F12.8°C 78% 7.4 mph SW11.9 kmh SW 10.0 mph16.1 kmh 30.22 in1023.4 mb - 0.00 in0.0 mm 0.00 in0.0 mm
03:10 PM 62.4°F16.9°C 55.4°F13.0°C 78% 6.0 mph SW9.7 kmh SW 10.0 mph16.1 kmh 30.21 in1023.0 mb - 0.00 in0.0 mm 0.00 in0.0 mm
03:20 PM 62.5°F16.9°C 54.8°F12.7°C 76% 6.3 mph SW10.1 kmh SW 11.0 mph17.7 kmh 30.22 in1023.4 mb - 0.00 in0.0 mm 0.00 in0.0 mm
03:30 PM 61.7°F16.5°C 54.1°F12.3°C 76% 6.9 mph SW11.1 kmh SW 10.0 mph16.1 kmh 30.21 in1023.0 mb - 0.00 in0.0 mm 0.00 in0.0 mm
03:40 PM 61.6°F16.4°C 54.0°F12.2°C 76% 8.2 mph SW13.2 kmh SW 13.0 mph20.9 kmh 30.21 in1023.0 mb - 0.00 in0.0 mm 0.00 in0.0 mm
03:50 PM 61.2°F16.2°C 53.9°F12.2°C 77% 6.8 mph WSW10.9 kmh WSW 8.0 mph12.9 kmh 30.21 in1023.0 mb - 0.00 in0.0 mm 0.00 in0.0 mm
04:00 PM 61.1°F16.2°C 54.2°F12.3°C 78% 4.5 mph WSW7.2 kmh WSW 5.0 mph8.0 kmh 30.21 in1023.0 mb - 0.00 in0.0 mm 0.00 in0.0 mm
04:10 PM 60.9°F16.1°C 54.0°F12.2°C 78% 4.8 mph WSW7.7 kmh WSW 7.0 mph11.3 kmh 30.21 in1023.0 mb - 0.00 in0.0 mm 0.00 in0.0 mm
04:20 PM 60.3°F15.7°C 53.8°F12.1°C 79% 4.5 mph WSW7.2 kmh WSW 7.0 mph11.3 kmh 30.21 in1023.0 mb - 0.00 in0.0 mm 0.00 in0.0 mm
04:30 PM 60.3°F15.7°C 54.1°F12.3°C 80% 1.3 mph WSW2.1 kmh WSW 1.0 mph1.6 kmh 30.21 in1023.0 mb - 0.00 in0.0 mm 0.00 in0.0 mm
04:40 PM 59.6°F15.3°C 53.8°F12.1°C 81% 6.9 mph SW11.1 kmh SW 9.0 mph14.5 kmh 30.21 in1023.0 mb - 0.00 in0.0 mm 0.00 in0.0 mm
04:50 PM 59.0°F15.0°C 53.8°F12.1°C 83% 5.7 mph SSE9.2 kmh SSE 7.0 mph11.3 kmh 30.21 in1023.0 mb - 0.00 in0.0 mm 0.00 in0.0 mm
05:00 PM 58.8°F14.9°C 54.3°F12.4°C 85% 5.0 mph SSE8.0 kmh SSE 10.0 mph16.1 kmh 30.21 in1023.0 mb - 0.00 in0.0 mm 0.00 in0.0 mm
05:10 PM 58.3°F14.6°C 54.5°F12.5°C 87% 3.3 mph SSE5.3 kmh SSE 10.0 mph16.1 kmh 30.20 in1022.7 mb - 0.00 in0.0 mm 0.00 in0.0 mm
05:20 PM 57.8°F14.3°C 54.3°F12.4°C 88% 8.4 mph SSE13.5 kmh SSE 10.0 mph16.1 kmh 30.21 in1023.0 mb - 0.00 in0.0 mm 0.00 in0.0 mm
05:30 PM 57.5°F14.2°C 54.3°F12.4°C 89% 5.6 mph SSE9.0 kmh SSE 10.0 mph16.1 kmh 30.21 in1023.0 mb - 0.00 in0.0 mm 0.00 in0.0 mm
05:40 PM 57.3°F14.1°C 54.1°F12.3°C 89% 4.2 mph SSE6.8 kmh SSE 6.0 mph9.7 kmh 30.21 in1023.0 mb - 0.00 in0.0 mm 0.00 in0.0 mm
05:50 PM 57.1°F13.9°C 53.9°F12.2°C 89% 3.1 mph SSE5.0 kmh SSE 4.0 mph6.4 kmh 30.22 in1023.4 mb - 0.00 in0.0 mm 0.00 in0.0 mm
06:00 PM 57.1°F13.9°C 53.9°F12.2°C 89% 2.3 mph SSE3.7 kmh SSE 4.0 mph6.4 kmh 30.22 in1023.4 mb - 0.00 in0.0 mm 0.00 in0.0 mm
06:10 PM 56.9°F13.8°C 53.7°F12.1°C 89% 0.5 mph SSE0.8 kmh SSE 2.0 mph3.2 kmh 30.22 in1023.4 mb - 0.00 in0.0 mm 0.00 in0.0 mm
06:20 PM 57.0°F13.9°C 53.8°F12.1°C 89% 0.9 mph SSE1.4 kmh SSE 1.0 mph1.6 kmh 30.22 in1023.4 mb - 0.00 in0.0 mm 0.00 in0.0 mm
06:30 PM 57.1°F13.9°C 53.9°F12.2°C 89% 0.7 mph SSE1.1 kmh SSE 2.0 mph3.2 kmh 30.22 in1023.4 mb - 0.00 in0.0 mm 0.00 in0.0 mm
06:40 PM 57.0°F13.9°C 53.8°F12.1°C 89% 0.1 mph SSE0.2 kmh SSE -- 30.22 in1023.4 mb - 0.00 in0.0 mm 0.00 in0.0 mm
06:50 PM 56.7°F13.7°C 53.5°F11.9°C 89% 1.5 mph SSE2.4 kmh SSE 3.0 mph4.8 kmh 30.23 in1023.7 mb - 0.00 in0.0 mm 0.00 in0.0 mm
07:00 PM 56.6°F13.7°C 53.4°F11.9°C 89% 0.3 mph SSE0.5 kmh SSE 2.0 mph3.2 kmh 30.23 in1023.7 mb - 0.00 in0.0 mm 0.00 in0.0 mm
07:10 PM 56.4°F13.6°C 53.5°F11.9°C 90% Calm Calm -- 30.22 in1023.4 mb - 0.00 in0.0 mm 0.00 in0.0 mm
07:20 PM 56.3°F13.5°C 53.4°F11.9°C 90% 1.7 mph SSE2.7 kmh SSE 3.0 mph4.8 kmh 30.22 in1023.4 mb - 0.00 in0.0 mm 0.00 in0.0 mm
07:30 PM 56.1°F13.4°C 53.2°F11.8°C 90% Calm Calm -- 30.22 in1023.4 mb - 0.00 in0.0 mm 0.00 in0.0 mm
07:40 PM 56.0°F13.3°C 53.1°F11.7°C 90% Calm Calm -- 30.22 in1023.4 mb - 0.00 in0.0 mm 0.00 in0.0 mm
07:50 PM 55.7°F13.2°C 52.8°F11.6°C 90% 0.4 mph SSE0.6 kmh SSE 1.0 mph1.6 kmh 30.23 in1023.7 mb - 0.00 in0.0 mm 0.00 in0.0 mm
08:00 PM 55.5°F13.1°C 52.6°F11.4°C 90% Calm Calm -- 30.22 in1023.4 mb - 0.00 in0.0 mm 0.00 in0.0 mm
08:10 PM 55.3°F12.9°C 52.4°F11.3°C 90% 0.5 mph SSE0.8 kmh SSE 1.0 mph1.6 kmh 30.22 in1023.4 mb - 0.00 in0.0 mm 0.00 in0.0 mm
08:20 PM 54.9°F12.7°C 52.0°F11.1°C 90% Calm Calm -- 30.23 in1023.7 mb - 0.00 in0.0 mm 0.00 in0.0 mm
08:30 PM 54.4°F12.4°C 51.5°F10.8°C 90% Calm Calm -- 30.23 in1023.7 mb - 0.00 in0.0 mm 0.00 in0.0 mm
08:40 PM 54.1°F12.3°C 51.2°F10.7°C 90% Calm Calm -- 30.23 in1023.7 mb - 0.00 in0.0 mm 0.00 in0.0 mm
08:50 PM 54.0°F12.2°C 51.1°F10.6°C 90% 1.1 mph SSE1.8 kmh SSE 2.0 mph3.2 kmh 30.23 in1023.7 mb - 0.00 in0.0 mm 0.00 in0.0 mm
09:00 PM 54.1°F12.3°C 51.2°F10.7°C 90% 1.1 mph SSE1.8 kmh SSE 3.0 mph4.8 kmh 30.24 in1024.0 mb - 0.00 in0.0 mm 0.00 in0.0 mm
09:10 PM 53.9°F12.2°C 51.0°F10.6°C 90% 1.4 mph SSE2.3 kmh SSE 3.0 mph4.8 kmh 30.24 in1024.0 mb - 0.00 in0.0 mm 0.00 in0.0 mm
09:20 PM 53.7°F12.1°C 50.8°F10.4°C 90% 0.3 mph SSE0.5 kmh SSE 1.0 mph1.6 kmh 30.24 in1024.0 mb - 0.00 in0.0 mm 0.00 in0.0 mm
09:30 PM 53.3°F11.8°C 50.4°F10.2°C 90% 2.0 mph SSE3.2 kmh SSE 3.0 mph4.8 kmh 30.24 in1024.0 mb - 0.00 in0.0 mm 0.00 in0.0 mm
09:40 PM 52.8°F11.6°C 49.6°F9.8°C 89% 2.0 mph SSE3.2 kmh SSE 3.0 mph4.8 kmh 30.24 in1024.0 mb - 0.00 in0.0 mm 0.00 in0.0 mm
09:50 PM 52.8°F11.6°C 49.4°F9.7°C 88% 2.9 mph SSE4.7 kmh SSE 4.0 mph6.4 kmh 30.24 in1024.0 mb - 0.00 in0.0 mm 0.00 in0.0 mm
10:00 PM 53.2°F11.8°C 49.4°F9.7°C 87% 3.3 mph SSE5.3 kmh SSE 4.0 mph6.4 kmh 30.24 in1024.0 mb - 0.00 in0.0 mm 0.00 in0.0 mm
10:30 PM 53.6°F12.0°C 49.6°F9.8°C 86% 3.0 mph SSE4.8 kmh SSE 4.0 mph6.4 kmh 30.24 in1024.0 mb - 0.00 in0.0 mm 0.00 in0.0 mm
10:40 PM 54.0°F12.2°C 49.9°F9.9°C 86% 3.2 mph SSE5.1 kmh SSE 5.0 mph8.0 kmh 30.24 in1024.0 mb - 0.00 in0.0 mm 0.00 in0.0 mm
10:50 PM 53.9°F12.2°C 49.5°F9.7°C 85% 3.6 mph SSE5.8 kmh SSE 4.0 mph6.4 kmh 30.24 in1024.0 mb - 0.00 in0.0 mm 0.00 in0.0 mm
11:00 PM 53.6°F12.0°C 49.2°F9.6°C 85% 3.5 mph SSE5.6 kmh SSE 4.0 mph6.4 kmh 30.24 in1024.0 mb - 0.00 in0.0 mm 0.00 in0.0 mm
11:10 PM 53.6°F12.0°C 49.2°F9.6°C 85% 3.7 mph SSE6.0 kmh SSE 4.0 mph6.4 kmh 30.24 in1024.0 mb - 0.00 in0.0 mm 0.00 in0.0 mm
11:20 PM 53.5°F11.9°C 49.4°F9.7°C 86% 3.0 mph SSE4.8 kmh SSE 4.0 mph6.4 kmh 30.24 in1024.0 mb - 0.00 in0.0 mm 0.00 in0.0 mm
11:30 PM 53.4°F11.9°C 49.0°F9.4°C 85% 3.1 mph SSE5.0 kmh SSE 4.0 mph6.4 kmh 30.24 in1024.0 mb - 0.00 in0.0 mm 0.00 in0.0 mm
11:40 PM 53.5°F11.9°C 49.4°F9.7°C 86% 2.9 mph SSE4.7 kmh SSE 3.0 mph4.8 kmh 30.24 in1024.0 mb - 0.00 in0.0 mm 0.00 in0.0 mm
11:50 PM 53.5°F11.9°C 49.4°F9.7°C 86% 2.8 mph SSE4.5 kmh SSE 4.0 mph6.4 kmh 30.23 in1023.7 mb - 0.00 in0.0 mm 0.00 in0.0 mm